ADDS METAR Data INFO
IDs: Format: Raw Decoded Include TAF

Data at: 0422 UTC 28 Mar 2017

METAR for:KHLX (Hillsville/Twin Cnty, VA, US)
Text:KHLX 280415Z AUTO 18005KT 10SM BKN095 15/12 A2998 RMK AO2 LTG DSNT NW T01490122
Temperature: 14.9°C ( 59°F)
Dewpoint: 12.2°C ( 54°F) [RH = 84%]
Pressure (altimeter):29.98 inches Hg (1015.3 mb)
Winds:from the S (180 degrees) at 6 MPH (5 knots; 2.6 m/s)
Visibility:10 or more sm (16+ km)
Ceiling:9500 feet AGL
Clouds: broken clouds at 9500 feet AGL
QC Flag:automated observation with no human augmentation


Page loaded:  04:22 UTC  |   09:22 PM Pacific  |   10:22 PM Mountain  |   11:22 PM Central  |   12:22 AM Eastern

 

ADVISORIES

FORECASTS

FORECASTS

OBSERVATIONS

USER TOOLS

ABOUT US